This is the latest recevied weather packets stored in our database for station/object EA4BCR. If no packets are shown the sender has not sent any weather packets the latest 10 day(s).
| Time | Temp. | Humidity | Pressure | Rain* | Wind** | Luminosity | Snow |
|---|---|---|---|---|---|---|---|
| 1777831614 | 18.89° C | 60% | 1009.4 hPa | - | - | - | - |
| 1777831014 | 18.89° C | 55% | 1009.3 hPa | - | - | - | - |
| 1777830414 | 19.44° C | 51% | 1009.3 hPa | - | - | - | - |
| 1777829814 | 20° C | 52% | 1008.9 hPa | - | - | - | - |
| 1777829214 | 20° C | 50% | 1009 hPa | - | - | - | - |
| 1777828615 | 20° C | 50% | 1008.7 hPa | - | - | - | - |
| 1777828014 | 20.56° C | 49% | 1008.5 hPa | - | - | - | - |
| 1777827414 | 20.56° C | 52% | 1008.5 hPa | - | - | - | - |
| 1777826814 | 20.56° C | 48% | 1008.5 hPa | - | - | - | - |
| 1777826215 | 20.56° C | 55% | 1008.7 hPa | - | - | - | - |
| 1777825614 | 21.11° C | 75% | 1008.6 hPa | - | - | - | - |
| 1777825014 | 20° C | 79% | 1008.8 hPa | - | - | - | - |
| 1777824414 | 20° C | 83% | 1009.1 hPa | - | - | - | - |
| 1777823814 | 20.56° C | 81% | 1008.9 hPa | - | - | - | - |
| 1777823214 | 19.44° C | 96% | 1009.2 hPa | - | - | - | - |
| 1777822614 | 19.44° C | 94% | 1009.3 hPa | - | - | - | - |
| 1777822015 | 20° C | 94% | 1009.2 hPa | - | - | - | - |
| 1777821414 | 19.44° C | 94% | 1009.4 hPa | - | - | - | - |
| 1777820815 | 20.56° C | 92% | 1009 hPa | - | - | - | - |
| 1777820214 | 20° C | 94% | 1009.3 hPa | - | - | - | - |
| 1777819614 | 20.56° C | 91% | 1009.4 hPa | - | - | - | - |
| 1777819014 | 19.44° C | 91% | 1009.6 hPa | - | - | - | - |
| 1777818414 | 19.44° C | 98% | 1009.9 hPa | - | - | - | - |
| 1777817814 | 19.44° C | 93% | 1009.9 hPa | - | - | - | - |
| 1777817214 | 19.44° C | 93% | 1010.1 hPa | - | - | - | - |
* Rain since midnight (hover to see other rain measurements)
** Current wind speed in m/s (hover to see current wind gust speed)